sensor_id;sensor_type;location;lat;lon;timestamp;pressure;altitude;pressure_sealevel;temperature;humidity
16255;BME280;8235;52.198;9.904;2024-02-16T00:00:54;100528.06;;;11.19;100.00
16255;BME280;8235;52.198;9.904;2024-02-16T00:03:22;100521.03;;;11.18;100.00
16255;BME280;8235;52.198;9.904;2024-02-16T00:05:48;100525.59;;;11.16;100.00
16255;BME280;8235;52.198;9.904;2024-02-16T00:08:17;100516.00;;;11.13;100.00
16255;BME280;8235;52.198;9.904;2024-02-16T00:10:43;100525.91;;;11.11;100.00
16255;BME280;8235;52.198;9.904;2024-02-16T00:13:10;100526.75;;;11.11;100.00
16255;BME280;8235;52.198;9.904;2024-02-16T00:15:37;100518.25;;;11.06;100.00
16255;BME280;8235;52.198;9.904;2024-02-16T00:18:05;100518.44;;;11.03;100.00
16255;BME280;8235;52.198;9.904;2024-02-16T00:20:31;100508.84;;;11.01;100.00
16255;BME280;8235;52.198;9.904;2024-02-16T00:22:58;100516.19;;;10.97;100.00
16255;BME280;8235;52.198;9.904;2024-02-16T00:25:25;100509.25;;;10.95;100.00
16255;BME280;8235;52.198;9.904;2024-02-16T00:27:51;100511.16;;;10.93;100.00
16255;BME280;8235;52.198;9.904;2024-02-16T00:30:19;100515.66;;;10.92;100.00
16255;BME280;8235;52.198;9.904;2024-02-16T00:32:45;100506.69;;;10.93;100.00
16255;BME280;8235;52.198;9.904;2024-02-16T00:35:14;100502.84;;;10.97;100.00
16255;BME280;8235;52.198;9.904;2024-02-16T00:37:43;100497.31;;;11.00;100.00
16255;BME280;8235;52.198;9.904;2024-02-16T00:40:11;100489.22;;;11.02;100.00
16255;BME280;8235;52.198;9.904;2024-02-16T00:42:38;100480.81;;;11.08;100.00
16255;BME280;8235;52.198;9.904;2024-02-16T00:45:05;100476.88;;;11.13;100.00
16255;BME280;8235;52.198;9.904;2024-02-16T00:47:32;100471.22;;;11.18;100.00
16255;BME280;8235;52.198;9.904;2024-02-16T00:49:59;100462.28;;;11.19;100.00
16255;BME280;8235;52.198;9.904;2024-02-16T00:52:26;100468.47;;;11.20;100.00
16255;BME280;8235;52.198;9.904;2024-02-16T00:54:53;100470.28;;;11.19;100.00
16255;BME280;8235;52.198;9.904;2024-02-16T00:57:22;100468.56;;;11.18;100.00
16255;BME280;8235;52.198;9.904;2024-02-16T00:59:49;100470.28;;;11.19;100.00
16255;BME280;8235;52.198;9.904;2024-02-16T01:02:15;100465.03;;;11.18;100.00
16255;BME280;8235;52.198;9.904;2024-02-16T01:04:42;100457.81;;;11.20;100.00
16255;BME280;8235;52.198;9.904;2024-02-16T01:07:09;100453.44;;;11.19;100.00
16255;BME280;8235;52.198;9.904;2024-02-16T01:09:37;100458.22;;;11.13;100.00
16255;BME280;8235;52.198;9.904;2024-02-16T01:12:03;100448.50;;;11.12;100.00
16255;BME280;8235;52.198;9.904;2024-02-16T01:14:30;100450.47;;;11.10;100.00
16255;BME280;8235;52.198;9.904;2024-02-16T01:16:56;100443.53;;;11.08;100.00
16255;BME280;8235;52.198;9.904;2024-02-16T01:19:23;100438.28;;;11.06;100.00
16255;BME280;8235;52.198;9.904;2024-02-16T01:21:49;100429.53;;;11.04;100.00
16255;BME280;8235;52.198;9.904;2024-02-16T01:24:18;100425.72;;;11.08;100.00
16255;BME280;8235;52.198;9.904;2024-02-16T01:26:46;100427.53;;;11.08;100.00
16255;BME280;8235;52.198;9.904;2024-02-16T01:29:13;100422.09;;;11.09;100.00
16255;BME280;8235;52.198;9.904;2024-02-16T01:31:39;100420.38;;;11.08;100.00
16255;BME280;8235;52.198;9.904;2024-02-16T01:34:06;100415.25;;;11.05;100.00
16255;BME280;8235;52.198;9.904;2024-02-16T01:36:32;100421.25;;;11.09;100.00
16255;BME280;8235;52.198;9.904;2024-02-16T01:38:58;100427.63;;;11.06;100.00
16255;BME280;8235;52.198;9.904;2024-02-16T01:41:25;100417.94;;;11.05;100.00
16255;BME280;8235;52.198;9.904;2024-02-16T01:43:53;100428.78;;;11.02;100.00
16255;BME280;8235;52.198;9.904;2024-02-16T01:46:20;100433.38;;;11.00;100.00
16255;BME280;8235;52.198;9.904;2024-02-16T01:48:48;100428.69;;;11.04;99.92
16255;BME280;8235;52.198;9.904;2024-02-16T01:51:15;100431.66;;;10.99;99.81
16255;BME280;8235;52.198;9.904;2024-02-16T01:53:42;100418.13;;;11.02;99.06
16255;BME280;8235;52.198;9.904;2024-02-16T01:56:08;100420.69;;;11.04;99.15
16255;BME280;8235;52.198;9.904;2024-02-16T01:58:35;100413.34;;;11.07;98.84
16255;BME280;8235;52.198;9.904;2024-02-16T02:01:03;100411.53;;;11.08;98.94
16255;BME280;8235;52.198;9.904;2024-02-16T02:03:30;100406.97;;;11.10;98.70
16255;BME280;8235;52.198;9.904;2024-02-16T02:05:56;100406.72;;;11.13;97.95
16255;BME280;8235;52.198;9.904;2024-02-16T02:08:24;100411.00;;;11.16;97.72
16255;BME280;8235;52.198;9.904;2024-02-16T02:10:51;100410.88;;;11.17;97.31
16255;BME280;8235;52.198;9.904;2024-02-16T02:13:18;100410.69;;;11.20;96.95
16255;BME280;8235;52.198;9.904;2024-02-16T02:15:47;100408.88;;;11.21;96.78
16255;BME280;8235;52.198;9.904;2024-02-16T02:18:15;100407.16;;;11.20;96.48
16255;BME280;8235;52.198;9.904;2024-02-16T02:20:41;100407.56;;;11.13;96.89
16255;BME280;8235;52.198;9.904;2024-02-16T02:23:09;100408.63;;;11.11;97.14
16255;BME280;8235;52.198;9.904;2024-02-16T02:25:36;100411.63;;;11.06;96.89
16255;BME280;8235;52.198;9.904;2024-02-16T02:28:03;100416.75;;;11.09;96.47
16255;BME280;8235;52.198;9.904;2024-02-16T02:30:29;100420.50;;;11.07;97.00
16255;BME280;8235;52.198;9.904;2024-02-16T02:32:56;100416.13;;;11.06;97.06
16255;BME280;8235;52.198;9.904;2024-02-16T02:35:22;100406.22;;;11.08;96.24
16255;BME280;8235;52.198;9.904;2024-02-16T02:37:49;100415.06;;;11.08;96.23
16255;BME280;8235;52.198;9.904;2024-02-16T02:40:17;100404.28;;;11.10;96.20
16255;BME280;8235;52.198;9.904;2024-02-16T02:42:44;100400.53;;;11.12;95.86
16255;BME280;8235;52.198;9.904;2024-02-16T02:45:10;100394.25;;;11.13;95.51
16255;BME280;8235;52.198;9.904;2024-02-16T02:47:37;100383.59;;;11.13;95.65
16255;BME280;8235;52.198;9.904;2024-02-16T02:50:04;100393.06;;;11.18;95.49
16255;BME280;8235;52.198;9.904;2024-02-16T02:52:31;100379.53;;;11.21;95.24
16255;BME280;8235;52.198;9.904;2024-02-16T02:54:57;100382.97;;;11.23;94.99
16255;BME280;8235;52.198;9.904;2024-02-16T02:57:25;100386.59;;;11.22;94.90
16255;BME280;8235;52.198;9.904;2024-02-16T02:59:51;100390.09;;;11.22;94.12
16255;BME280;8235;52.198;9.904;2024-02-16T03:02:18;100384.66;;;11.24;94.17
16255;BME280;8235;52.198;9.904;2024-02-16T03:04:44;100389.78;;;11.27;94.16
16255;BME280;8235;52.198;9.904;2024-02-16T03:07:11;100374.00;;;11.24;94.46
16255;BME280;8235;52.198;9.904;2024-02-16T03:09:37;100381.78;;;11.27;94.02
16255;BME280;8235;52.198;9.904;2024-02-16T03:12:04;100378.16;;;11.28;94.22
16255;BME280;8235;52.198;9.904;2024-02-16T03:14:32;100371.97;;;11.27;94.06
16255;BME280;8235;52.198;9.904;2024-02-16T03:16:59;100366.84;;;11.24;94.20
16255;BME280;8235;52.198;9.904;2024-02-16T03:19:29;100373.25;;;11.22;94.71
16255;BME280;8235;52.198;9.904;2024-02-16T03:21:55;100376.22;;;11.17;94.73
16255;BME280;8235;52.198;9.904;2024-02-16T03:24:22;100380.16;;;11.11;94.77
16255;BME280;8235;52.198;9.904;2024-02-16T03:26:48;100376.78;;;11.09;95.10
16255;BME280;8235;52.198;9.904;2024-02-16T03:29:15;100377.75;;;11.08;95.07
16255;BME280;8235;52.198;9.904;2024-02-16T03:31:42;100382.31;;;11.06;94.85
16255;BME280;8235;52.198;9.904;2024-02-16T03:34:09;100377.09;;;11.05;94.90
16255;BME280;8235;52.198;9.904;2024-02-16T03:36:35;100374.44;;;11.05;94.63
16255;BME280;8235;52.198;9.904;2024-02-16T03:39:02;100368.25;;;11.04;94.54
16255;BME280;8235;52.198;9.904;2024-02-16T03:41:28;100369.00;;;11.06;94.47
16255;BME280;8235;52.198;9.904;2024-02-16T03:43:55;100371.47;;;11.09;93.58
16255;BME280;8235;52.198;9.904;2024-02-16T03:46:23;100366.22;;;11.08;94.08
16255;BME280;8235;52.198;9.904;2024-02-16T03:48:51;100364.31;;;11.10;93.76
16255;BME280;8235;52.198;9.904;2024-02-16T03:51:17;100364.31;;;11.10;93.74
16255;BME280;8235;52.198;9.904;2024-02-16T03:53:44;100361.19;;;11.16;92.69
16255;BME280;8235;52.198;9.904;2024-02-16T03:56:11;100368.34;;;11.16;92.81
16255;BME280;8235;52.198;9.904;2024-02-16T03:58:37;100370.03;;;11.17;92.87
16255;BME280;8235;52.198;9.904;2024-02-16T04:01:06;100369.84;;;11.20;92.83
16255;BME280;8235;52.198;9.904;2024-02-16T04:03:32;100369.53;;;11.24;92.72
16255;BME280;8235;52.198;9.904;2024-02-16T04:06:00;100363.84;;;11.29;91.89
16255;BME280;8235;52.198;9.904;2024-02-16T04:08:29;100364.69;;;11.29;91.88
16255;BME280;8235;52.198;9.904;2024-02-16T04:10:56;100367.50;;;11.28;91.90
16255;BME280;8235;52.198;9.904;2024-02-16T04:13:23;100362.88;;;11.30;91.79
16255;BME280;8235;52.198;9.904;2024-02-16T04:15:49;100362.56;;;11.34;91.37
16255;BME280;8235;52.198;9.904;2024-02-16T04:18:16;100368.00;;;11.33;91.34
16255;BME280;8235;52.198;9.904;2024-02-16T04:20:44;100360.84;;;11.33;91.64
16255;BME280;8235;52.198;9.904;2024-02-16T04:23:11;100367.16;;;11.32;91.43
16255;BME280;8235;52.198;9.904;2024-02-16T04:25:38;100368.97;;;11.32;91.55
16255;BME280;8235;52.198;9.904;2024-02-16T04:28:05;100368.00;;;11.33;91.66
16255;BME280;8235;52.198;9.904;2024-02-16T04:30:30;100364.16;;;11.37;91.05
16255;BME280;8235;52.198;9.904;2024-02-16T04:32:57;100361.81;;;11.32;91.19
16255;BME280;8235;52.198;9.904;2024-02-16T04:35:23;100368.97;;;11.32;91.11
16255;BME280;8235;52.198;9.904;2024-02-16T04:37:50;100366.50;;;11.29;91.09
16255;BME280;8235;52.198;9.904;2024-02-16T04:40:17;100359.78;;;11.36;90.77
16255;BME280;8235;52.198;9.904;2024-02-16T04:42:44;100355.31;;;11.36;91.29
16255;BME280;8235;52.198;9.904;2024-02-16T04:45:11;100351.91;;;11.34;91.04
16255;BME280;8235;52.198;9.904;2024-02-16T04:47:38;100354.47;;;11.36;90.88
16255;BME280;8235;52.198;9.904;2024-02-16T04:50:05;100349.13;;;11.36;90.74
16255;BME280;8235;52.198;9.904;2024-02-16T04:52:36;100345.50;;;11.37;91.11
16255;BME280;8235;52.198;9.904;2024-02-16T04:55:03;100345.81;;;11.32;91.06
16255;BME280;8235;52.198;9.904;2024-02-16T04:57:32;100349.44;;;11.31;91.00
16255;BME280;8235;52.198;9.904;2024-02-16T04:59:58;100351.38;;;11.29;91.26
16255;BME280;8235;52.198;9.904;2024-02-16T05:02:25;100354.03;;;11.29;91.16
16255;BME280;8235;52.198;9.904;2024-02-16T05:04:51;100354.66;;;11.33;91.07
16255;BME280;8235;52.198;9.904;2024-02-16T05:07:18;100354.25;;;11.39;90.07
16255;BME280;8235;52.198;9.904;2024-02-16T05:09:45;100352.31;;;11.41;90.08
16255;BME280;8235;52.198;9.904;2024-02-16T05:12:11;100341.44;;;11.44;89.80
16255;BME280;8235;52.198;9.904;2024-02-16T05:14:39;100352.97;;;11.44;89.99
16255;BME280;8235;52.198;9.904;2024-02-16T05:17:05;100350.31;;;11.44;89.57
16255;BME280;8235;52.198;9.904;2024-02-16T05:19:32;100350.31;;;11.44;89.62
16255;BME280;8235;52.198;9.904;2024-02-16T05:22:02;100343.00;;;11.46;89.51
16255;BME280;8235;52.198;9.904;2024-02-16T05:24:28;100346.31;;;11.50;89.02
16255;BME280;8235;52.198;9.904;2024-02-16T05:26:55;100348.88;;;11.52;88.87
16255;BME280;8235;52.198;9.904;2024-02-16T05:29:21;100353.16;;;11.54;88.91
16255;BME280;8235;52.198;9.904;2024-02-16T05:31:52;100340.66;;;11.55;88.20
16255;BME280;8235;52.198;9.904;2024-02-16T05:34:19;100344.06;;;11.57;88.14
16255;BME280;8235;52.198;9.904;2024-02-16T05:36:45;100340.13;;;11.62;87.44
16255;BME280;8235;52.198;9.904;2024-02-16T05:39:13;100329.09;;;11.67;87.21
16255;BME280;8235;52.198;9.904;2024-02-16T05:41:51;100337.50;;;11.73;86.38
16255;BME280;8235;52.198;9.904;2024-02-16T05:44:18;100336.56;;;11.74;86.63
16255;BME280;8235;52.198;9.904;2024-02-16T05:46:45;100332.91;;;11.75;86.57
16255;BME280;8235;52.198;9.904;2024-02-16T05:49:13;100337.31;;;11.76;86.40
16255;BME280;8235;52.198;9.904;2024-02-16T05:51:40;100336.13;;;11.80;86.10
16255;BME280;8235;52.198;9.904;2024-02-16T05:54:07;100334.31;;;11.81;85.69
16255;BME280;8235;52.198;9.904;2024-02-16T05:56:34;100323.03;;;11.77;86.04
16255;BME280;8235;52.198;9.904;2024-02-16T05:59:02;100324.50;;;11.81;85.70
16255;BME280;8235;52.198;9.904;2024-02-16T06:01:29;100320.34;;;11.77;85.74
16255;BME280;8235;52.198;9.904;2024-02-16T06:03:57;100336.13;;;11.80;85.32
16255;BME280;8235;52.198;9.904;2024-02-16T06:06:24;100326.19;;;11.82;85.33
16255;BME280;8235;52.198;9.904;2024-02-16T06:08:51;100328.75;;;11.84;84.75
16255;BME280;8235;52.198;9.904;2024-02-16T06:11:17;100336.75;;;11.84;85.04
16255;BME280;8235;52.198;9.904;2024-02-16T06:13:44;100332.25;;;11.85;84.80
16255;BME280;8235;52.198;9.904;2024-02-16T06:16:10;100333.47;;;11.80;85.09
16255;BME280;8235;52.198;9.904;2024-02-16T06:18:37;100335.56;;;11.88;84.59
16255;BME280;8235;52.198;9.904;2024-02-16T06:21:04;100340.78;;;11.90;84.63
16255;BME280;8235;52.198;9.904;2024-02-16T06:23:32;100339.94;;;11.89;84.66
16255;BME280;8235;52.198;9.904;2024-02-16T06:25:58;100341.75;;;11.89;84.52
16255;BME280;8235;52.198;9.904;2024-02-16T06:28:25;100336.19;;;11.92;84.78
16255;BME280;8235;52.198;9.904;2024-02-16T06:30:51;100325.28;;;11.95;84.42
16255;BME280;8235;52.198;9.904;2024-02-16T06:33:18;100326.88;;;11.97;83.77
16255;BME280;8235;52.198;9.904;2024-02-16T06:35:44;100332.44;;;11.94;84.43
16255;BME280;8235;52.198;9.904;2024-02-16T06:38:12;100332.66;;;11.91;84.66
16255;BME280;8235;52.198;9.904;2024-02-16T06:40:40;100336.19;;;11.92;84.62
16255;BME280;8235;52.198;9.904;2024-02-16T06:43:06;100328.28;;;11.90;84.70
16255;BME280;8235;52.198;9.904;2024-02-16T06:45:33;100333.63;;;11.90;84.97
16255;BME280;8235;52.198;9.904;2024-02-16T06:47:59;100330.13;;;11.90;84.65
16255;BME280;8235;52.198;9.904;2024-02-16T06:50:26;100343.03;;;11.83;85.28
16255;BME280;8235;52.198;9.904;2024-02-16T06:52:53;100339.19;;;11.87;85.42
16255;BME280;8235;52.198;9.904;2024-02-16T06:55:20;100340.25;;;11.85;85.32
16255;BME280;8235;52.198;9.904;2024-02-16T06:57:48;100337.84;;;11.81;85.29
16255;BME280;8235;52.198;9.904;2024-02-16T07:00:16;100349.69;;;11.77;85.84
16255;BME280;8235;52.198;9.904;2024-02-16T07:02:45;100356.06;;;11.75;86.26
16255;BME280;8235;52.198;9.904;2024-02-16T07:05:12;100351.81;;;11.72;86.38
16255;BME280;8235;52.198;9.904;2024-02-16T07:07:38;100358.31;;;11.68;86.82
16255;BME280;8235;52.198;9.904;2024-02-16T07:10:06;100355.16;;;11.63;86.92
16255;BME280;8235;52.198;9.904;2024-02-16T07:12:38;100358.91;;;11.61;87.68
16255;BME280;8235;52.198;9.904;2024-02-16T07:15:07;100345.66;;;11.59;87.35
16255;BME280;8235;52.198;9.904;2024-02-16T07:17:34;100342.53;;;11.65;86.97
16255;BME280;8235;52.198;9.904;2024-02-16T07:20:02;100340.91;;;11.75;86.01
16255;BME280;8235;52.198;9.904;2024-02-16T07:22:30;100344.84;;;11.82;84.96
16255;BME280;8235;52.198;9.904;2024-02-16T07:24:56;100357.50;;;11.80;85.75
16255;BME280;8235;52.198;9.904;2024-02-16T07:27:23;100352.88;;;11.82;85.79
16255;BME280;8235;52.198;9.904;2024-02-16T07:29:50;100359.78;;;11.85;85.66
16255;BME280;8235;52.198;9.904;2024-02-16T07:32:18;100362.34;;;11.87;85.61
16255;BME280;8235;52.198;9.904;2024-02-16T07:34:45;100366.50;;;11.91;85.36
16255;BME280;8235;52.198;9.904;2024-02-16T07:37:12;100371.63;;;11.94;84.65
16255;BME280;8235;52.198;9.904;2024-02-16T07:39:40;100366.81;;;11.99;84.07
16255;BME280;8235;52.198;9.904;2024-02-16T07:42:07;100366.56;;;12.02;83.83
16255;BME280;8235;52.198;9.904;2024-02-16T07:44:34;100366.22;;;12.06;84.01
16255;BME280;8235;52.198;9.904;2024-02-16T07:47:01;100349.47;;;12.04;83.97
16255;BME280;8235;52.198;9.904;2024-02-16T07:49:29;100347.66;;;12.05;84.50
16255;BME280;8235;52.198;9.904;2024-02-16T07:51:56;100357.16;;;12.09;84.10
16255;BME280;8235;52.198;9.904;2024-02-16T07:54:23;100356.28;;;12.08;84.24
16255;BME280;8235;52.198;9.904;2024-02-16T07:56:49;100352.88;;;12.06;83.78
16255;BME280;8235;52.198;9.904;2024-02-16T07:59:16;100353.50;;;12.10;84.11
16255;BME280;8235;52.198;9.904;2024-02-16T08:01:44;100357.88;;;12.11;83.27
16255;BME280;8235;52.198;9.904;2024-02-16T08:04:10;100360.44;;;12.12;83.55
16255;BME280;8235;52.198;9.904;2024-02-16T08:06:38;100366.31;;;12.18;84.00
16255;BME280;8235;52.198;9.904;2024-02-16T08:09:04;100367.00;;;12.20;83.90
16255;BME280;8235;52.198;9.904;2024-02-16T08:11:31;100365.31;;;12.18;83.90
16255;BME280;8235;52.198;9.904;2024-02-16T08:13:57;100355.38;;;12.21;84.41
16255;BME280;8235;52.198;9.904;2024-02-16T08:16:26;100361.34;;;12.24;83.88
16255;BME280;8235;52.198;9.904;2024-02-16T08:18:52;100361.00;;;12.29;83.85
16255;BME280;8235;52.198;9.904;2024-02-16T08:21:19;100365.63;;;12.38;83.49
16255;BME280;8235;52.198;9.904;2024-02-16T08:23:47;100360.81;;;12.43;83.54
16255;BME280;8235;52.198;9.904;2024-02-16T08:26:14;100354.91;;;12.50;82.98
16255;BME280;8235;52.198;9.904;2024-02-16T08:28:43;100350.66;;;12.59;82.52
16255;BME280;8235;52.198;9.904;2024-02-16T08:31:09;100348.38;;;12.66;81.57
16255;BME280;8235;52.198;9.904;2024-02-16T08:33:36;100338.66;;;12.76;81.04
16255;BME280;8235;52.198;9.904;2024-02-16T08:36:06;100350.25;;;12.88;80.39
16255;BME280;8235;52.198;9.904;2024-02-16T08:38:33;100354.38;;;12.92;80.53
16255;BME280;8235;52.198;9.904;2024-02-16T08:41:00;100355.00;;;12.95;79.61
16255;BME280;8235;52.198;9.904;2024-02-16T08:43:26;100354.75;;;12.98;79.76
16255;BME280;8235;52.198;9.904;2024-02-16T08:45:53;100353.66;;;13.01;79.69
16255;BME280;8235;52.198;9.904;2024-02-16T08:48:19;100361.69;;;13.01;80.07
16255;BME280;8235;52.198;9.904;2024-02-16T08:50:46;100352.81;;;13.00;79.71
16255;BME280;8235;52.198;9.904;2024-02-16T08:53:12;100356.22;;;13.02;79.49
16255;BME280;8235;52.198;9.904;2024-02-16T08:55:39;100353.44;;;13.04;80.06
16255;BME280;8235;52.198;9.904;2024-02-16T08:58:08;100351.50;;;13.06;80.24
16255;BME280;8235;52.198;9.904;2024-02-16T09:00:35;100357.06;;;13.03;80.16
16255;BME280;8235;52.198;9.904;2024-02-16T09:03:01;100368.38;;;13.06;80.31
16255;BME280;8235;52.198;9.904;2024-02-16T09:05:28;100378.38;;;13.15;80.92
16255;BME280;8235;52.198;9.904;2024-02-16T09:07:54;100376.31;;;13.19;80.87
16255;BME280;8235;52.198;9.904;2024-02-16T09:10:22;100373.03;;;13.27;80.66
16255;BME280;8235;52.198;9.904;2024-02-16T09:12:48;100381.06;;;13.27;80.94
16255;BME280;8235;52.198;9.904;2024-02-16T09:15:18;100378.03;;;13.31;80.05
16255;BME280;8235;52.198;9.904;2024-02-16T09:17:44;100374.16;;;13.35;80.67
16255;BME280;8235;52.198;9.904;2024-02-16T09:20:11;100370.03;;;13.42;80.90
16255;BME280;8235;52.198;9.904;2024-02-16T09:22:40;100377.06;;;13.43;80.54
16255;BME280;8235;52.198;9.904;2024-02-16T09:25:07;100365.00;;;13.49;80.56
16255;BME280;8235;52.198;9.904;2024-02-16T09:27:33;100376.94;;;13.56;80.59
16255;BME280;8235;52.198;9.904;2024-02-16T09:30:05;100369.88;;;13.55;80.22
16255;BME280;8235;52.198;9.904;2024-02-16T09:32:33;100374.25;;;13.56;80.14
16255;BME280;8235;52.198;9.904;2024-02-16T09:34:59;100373.28;;;13.57;79.82
16255;BME280;8235;52.198;9.904;2024-02-16T09:37:26;100364.75;;;13.63;79.88
16255;BME280;8235;52.198;9.904;2024-02-16T09:39:53;100377.88;;;13.66;79.68
16255;BME280;8235;52.198;9.904;2024-02-16T09:42:20;100390.41;;;13.66;79.22
16255;BME280;8235;52.198;9.904;2024-02-16T09:44:47;100381.78;;;13.73;79.79
16255;BME280;8235;52.198;9.904;2024-02-16T09:47:14;100391.00;;;13.80;79.41
16255;BME280;8235;52.198;9.904;2024-02-16T09:49:47;100396.84;;;13.85;79.37
16255;BME280;8235;52.198;9.904;2024-02-16T09:52:13;100402.81;;;13.89;79.27
16255;BME280;8235;52.198;9.904;2024-02-16T09:54:40;100406.09;;;13.93;78.70
16255;BME280;8235;52.198;9.904;2024-02-16T09:57:07;100404.16;;;13.95;77.80
16255;BME280;8235;52.198;9.904;2024-02-16T09:59:33;100401.91;;;14.00;77.40
16255;BME280;8235;52.198;9.904;2024-02-16T10:02:01;100401.69;;;14.03;77.32
16255;BME280;8235;52.198;9.904;2024-02-16T10:04:28;100402.16;;;14.08;77.43
16255;BME280;8235;52.198;9.904;2024-02-16T10:06:56;100406.28;;;14.12;77.60
16255;BME280;8235;52.198;9.904;2024-02-16T10:09:24;100400.41;;;14.18;77.41
16255;BME280;8235;52.198;9.904;2024-02-16T10:11:50;100398.72;;;14.17;77.25
16255;BME280;8235;52.198;9.904;2024-02-16T10:14:17;100408.22;;;14.21;77.67
16255;BME280;8235;52.198;9.904;2024-02-16T10:16:44;100407.47;;;14.19;77.61
16255;BME280;8235;52.198;9.904;2024-02-16T10:19:12;100410.88;;;14.21;78.59
16255;BME280;8235;52.198;9.904;2024-02-16T10:21:39;100415.25;;;14.22;78.53
16255;BME280;8235;52.198;9.904;2024-02-16T10:24:08;100424.16;;;14.22;78.42
16255;BME280;8235;52.198;9.904;2024-02-16T10:26:35;100415.75;;;14.27;77.94
16255;BME280;8235;52.198;9.904;2024-02-16T10:29:03;100415.75;;;14.27;77.61
16255;BME280;8235;52.198;9.904;2024-02-16T10:31:31;100412.09;;;14.28;77.51
16255;BME280;8235;52.198;9.904;2024-02-16T10:33:59;100418.06;;;14.32;77.09
16255;BME280;8235;52.198;9.904;2024-02-16T10:36:27;100413.53;;;14.32;77.69
16255;BME280;8235;52.198;9.904;2024-02-16T10:38:55;100410.13;;;14.41;76.34
16255;BME280;8235;52.198;9.904;2024-02-16T10:41:26;100420.94;;;14.40;76.89
16255;BME280;8235;52.198;9.904;2024-02-16T10:43:55;100415.22;;;14.44;76.27
16255;BME280;8235;52.198;9.904;2024-02-16T10:46:22;100418.50;;;14.48;75.99
16255;BME280;8235;52.198;9.904;2024-02-16T10:48:49;100423.75;;;14.49;76.36
16255;BME280;8235;52.198;9.904;2024-02-16T10:51:18;100424.59;;;14.50;76.57
16255;BME280;8235;52.198;9.904;2024-02-16T10:53:46;100423.63;;;14.51;77.04
16255;BME280;8235;52.198;9.904;2024-02-16T10:56:13;100423.09;;;14.57;77.15
16255;BME280;8235;52.198;9.904;2024-02-16T10:58:41;100420.28;;;14.58;77.62
16255;BME280;8235;52.198;9.904;2024-02-16T11:01:09;100414.69;;;14.62;76.90
16255;BME280;8235;52.198;9.904;2024-02-16T11:03:37;100416.38;;;14.63;76.54
16255;BME280;8235;52.198;9.904;2024-02-16T11:06:14;100415.59;;;14.72;76.61
16255;BME280;8235;52.198;9.904;2024-02-16T11:08:41;100411.94;;;14.73;76.31
16255;BME280;8235;52.198;9.904;2024-02-16T11:11:08;100419.84;;;14.74;75.99
16255;BME280;8235;52.198;9.904;2024-02-16T11:13:37;100409.47;;;14.81;75.18
16255;BME280;8235;52.198;9.904;2024-02-16T11:16:06;100410.19;;;14.83;75.32
16255;BME280;8235;52.198;9.904;2024-02-16T11:18:37;100401.88;;;14.86;75.43
16255;BME280;8235;52.198;9.904;2024-02-16T11:21:04;100409.41;;;14.92;75.18
16255;BME280;8235;52.198;9.904;2024-02-16T11:23:34;100406.66;;;15.03;74.07
16255;BME280;8235;52.198;9.904;2024-02-16T11:26:02;100414.16;;;15.09;73.77
16255;BME280;8235;52.198;9.904;2024-02-16T11:28:31;100409.72;;;15.19;72.93
16255;BME280;8235;52.198;9.904;2024-02-16T11:30:58;100409.13;;;15.16;73.79
16255;BME280;8235;52.198;9.904;2024-02-16T11:33:26;100412.16;;;15.22;73.13
16255;BME280;8235;52.198;9.904;2024-02-16T11:35:54;100411.13;;;15.23;72.84
16255;BME280;8235;52.198;9.904;2024-02-16T11:38:21;100413.13;;;15.21;73.06
16255;BME280;8235;52.198;9.904;2024-02-16T11:40:55;100410.03;;;15.26;72.50
16255;BME280;8235;52.198;9.904;2024-02-16T11:43:22;100430.25;;;15.30;71.95
16255;BME280;8235;52.198;9.904;2024-02-16T11:45:49;100408.66;;;15.32;72.31
16255;BME280;8235;52.198;9.904;2024-02-16T11:48:19;100409.75;;;15.29;72.01
16255;BME280;8235;52.198;9.904;2024-02-16T11:50:48;100407.81;;;15.31;72.47
16255;BME280;8235;52.198;9.904;2024-02-16T11:53:18;100406.44;;;15.37;72.47
16255;BME280;8235;52.198;9.904;2024-02-16T11:55:46;100413.50;;;15.38;73.19
16255;BME280;8235;52.198;9.904;2024-02-16T11:58:15;100411.53;;;15.40;72.94
16255;BME280;8235;52.198;9.904;2024-02-16T12:00:42;100413.91;;;15.43;72.75
16255;BME280;8235;52.198;9.904;2024-02-16T12:03:08;100410.97;;;15.46;73.25
16255;BME280;8235;52.198;9.904;2024-02-16T12:05:35;100409.72;;;15.50;73.02
16255;BME280;8235;52.198;9.904;2024-02-16T12:08:03;100418.50;;;15.52;73.62
16255;BME280;8235;52.198;9.904;2024-02-16T12:10:31;100417.28;;;15.56;71.98
16255;BME280;8235;52.198;9.904;2024-02-16T12:12:58;100427.72;;;15.59;72.30
16255;BME280;8235;52.198;9.904;2024-02-16T12:15:25;100423.09;;;15.61;72.79
16255;BME280;8235;52.198;9.904;2024-02-16T12:17:59;100423.28;;;15.69;72.00
16255;BME280;8235;52.198;9.904;2024-02-16T12:20:26;100429.81;;;15.76;72.28
16255;BME280;8235;52.198;9.904;2024-02-16T12:22:52;100428.25;;;15.83;72.03
16255;BME280;8235;52.198;9.904;2024-02-16T12:25:20;100428.97;;;15.85;72.30
16255;BME280;8235;52.198;9.904;2024-02-16T12:27:46;100433.09;;;15.89;72.79
16255;BME280;8235;52.198;9.904;2024-02-16T12:30:13;100427.16;;;15.95;71.74
16255;BME280;8235;52.198;9.904;2024-02-16T12:32:41;100434.94;;;15.98;71.57
16255;BME280;8235;52.198;9.904;2024-02-16T12:35:08;100433.84;;;16.01;71.74
16255;BME280;8235;52.198;9.904;2024-02-16T12:37:34;100443.31;;;16.05;71.74
16255;BME280;8235;52.198;9.904;2024-02-16T12:40:03;100448.28;;;16.10;71.76
16255;BME280;8235;52.198;9.904;2024-02-16T12:42:32;100446.72;;;16.17;71.98
16255;BME280;8235;52.198;9.904;2024-02-16T12:44:59;100446.72;;;16.17;72.26
16255;BME280;8235;52.198;9.904;2024-02-16T12:47:26;100457.34;;;16.18;72.03
16255;BME280;8235;52.198;9.904;2024-02-16T12:49:55;100447.44;;;16.19;72.36
16255;BME280;8235;52.198;9.904;2024-02-16T12:52:22;100455.09;;;16.23;72.82
16255;BME280;8235;52.198;9.904;2024-02-16T12:54:48;100453.00;;;16.27;72.05
16255;BME280;8235;52.198;9.904;2024-02-16T12:57:15;100455.41;;;16.30;72.11
16255;BME280;8235;52.198;9.904;2024-02-16T12:59:43;100449.19;;;16.29;71.66